Time;durP1;ratioP1;P1;durP2;ratioP2;P2;SDS_P1;SDS_P2;PMS_P1;PMS_P2;Temp;Humidity;BMP_temperature;BMP_pressure;BME280_temperature;BME280_humidity;BME280_pressure;Samples;Min_cycle;Max_cycle;Signal;HPM_P1;HPM_P2
2021/03/07 00:01:29;;;;;;;5.27;4.47;;;;;;;3.32;37.06;95663.00;5013929;28;20256;-69
2021/03/07 00:03:55;;;;;;;6.97;4.20;;;;;;;2.92;37.74;95655.19;5014010;28;20208;-69
2021/03/07 00:06:20;;;;;;;6.83;4.40;;;;;;;3.21;37.84;95664.97;5014191;28;20231;-69
2021/03/07 00:08:46;;;;;;;8.33;4.43;;;;;;;3.38;37.34;95662.66;5013752;28;20184;-69
2021/03/07 00:11:11;;;;;;;8.67;4.90;;;;;;;3.47;37.51;95659.41;5013993;28;20173;-69
2021/03/07 00:13:37;;;;;;;7.20;4.47;;;;;;;3.33;37.80;95670.63;5012737;28;20235;-76
2021/03/07 00:16:02;;;;;;;8.33;4.87;;;;;;;3.50;37.27;95664.13;5013985;28;20641;-70
2021/03/07 00:18:28;;;;;;;10.37;4.30;;;;;;;3.58;36.67;95658.22;5013690;28;20208;-69
2021/03/07 00:20:53;;;;;;;9.00;4.93;;;;;;;3.29;36.69;95658.28;5013688;28;20528;-75
2021/03/07 00:23:19;;;;;;;6.97;4.67;;;;;;;3.15;38.06;95658.94;5013557;28;20187;-77
2021/03/07 00:25:44;;;;;;;9.13;4.70;;;;;;;3.32;36.80;95647.97;5013704;28;20165;-73
2021/03/07 00:28:10;;;;;;;5.47;4.07;;;;;;;3.10;37.85;95651.06;5013556;28;20551;-70
2021/03/07 00:30:35;;;;;;;7.47;5.13;;;;;;;3.16;37.18;95660.50;5013779;28;20176;-77
2021/03/07 00:33:01;;;;;;;8.93;4.63;;;;;;;3.15;38.28;95650.25;5013647;28;20559;-77
2021/03/07 00:35:26;;;;;;;5.60;4.37;;;;;;;3.14;37.91;95641.53;5013149;28;20683;-69
2021/03/07 00:37:52;;;;;;;6.90;5.00;;;;;;;3.25;37.58;95651.97;5013460;28;20216;-70
2021/03/07 00:40:17;;;;;;;9.67;4.70;;;;;;;3.22;37.28;95655.97;5013274;28;20169;-77
2021/03/07 00:42:44;;;;;;;7.93;4.50;;;;;;;3.19;38.14;95644.09;5013429;28;20690;-77
2021/03/07 00:45:10;;;;;;;7.22;4.30;;;;;;;3.08;37.69;95653.19;5013218;28;20709;-72
2021/03/07 00:47:35;;;;;;;8.60;4.30;;;;;;;3.21;37.54;95640.41;5013416;28;20177;-69
2021/03/07 00:50:20;;;;;;;6.57;4.13;;;;;;;3.30;37.14;95639.50;5013070;28;20169;-69
2021/03/07 00:52:46;;;;;;;7.13;4.68;;;;;;;3.09;38.07;95636.31;5013088;28;20789;-69
2021/03/07 00:55:11;;;;;;;7.90;4.70;;;;;;;3.01;38.22;95631.63;5012967;28;20181;-70
2021/03/07 00:57:37;;;;;;;5.43;4.37;;;;;;;3.09;38.76;95631.03;5013036;28;20240;-77
2021/03/07 01:00:29;;;;;;;9.20;5.13;;;;;;;3.17;37.65;95632.25;5012875;28;20187;-69
2021/03/07 01:02:54;;;;;;;7.47;4.57;;;;;;;3.07;37.97;95624.44;5009364;28;20730;-70
2021/03/07 01:05:26;;;;;;;8.43;4.63;;;;;;;2.87;38.09;95622.78;5012782;28;20181;-71
2021/03/07 01:07:52;;;;;;;6.18;4.25;;;;;;;2.63;38.22;95614.81;5013117;28;20173;-70
2021/03/07 01:10:38;;;;;;;7.40;4.60;;;;;;;2.72;37.67;95620.28;5012667;28;20239;-75
2021/03/07 01:13:05;;;;;;;5.93;4.65;;;;;;;2.55;38.63;95624.09;5012515;28;20640;-71
2021/03/07 01:15:31;;;;;;;7.28;4.50;;;;;;;2.49;37.86;95613.88;5012595;28;20220;-77
2021/03/07 01:17:57;;;;;;;8.77;4.37;;;;;;;2.96;38.09;95620.31;5011677;28;20295;-69
2021/03/07 01:20:22;;;;;;;7.10;3.90;;;;;;;3.10;38.56;95621.25;5012675;28;20598;-72
2021/03/07 01:22:48;;;;;;;8.10;5.27;;;;;;;3.03;38.11;95628.69;5012653;28;20227;-69
2021/03/07 01:25:14;;;;;;;6.83;5.00;;;;;;;2.86;38.87;95611.47;5012134;28;20235;-72
2021/03/07 01:27:39;;;;;;;7.07;4.70;;;;;;;3.00;38.55;95619.50;5012674;28;20177;-69
2021/03/07 01:30:25;;;;;;;6.73;4.23;;;;;;;2.87;38.64;95612.25;5012150;28;20173;-70
2021/03/07 01:32:51;;;;;;;7.82;5.00;;;;;;;2.97;38.82;95616.63;4971397;28;20794;-72
2021/03/07 01:35:17;;;;;;;6.90;4.63;;;;;;;2.91;37.96;95619.31;4971141;28;20186;-73
2021/03/07 01:37:42;;;;;;;5.97;4.53;;;;;;;3.02;37.74;95620.00;4971317;28;20233;-69
2021/03/07 01:40:19;;;;;;;6.10;4.20;;;;;;;3.14;37.03;95611.69;4970981;28;20273;-69
2021/03/07 01:42:48;;;;;;;8.30;4.65;;;;;;;2.89;38.24;95610.88;4971192;28;20277;-69
2021/03/07 01:45:17;;;;;;;8.45;4.30;;;;;;;2.57;38.53;95605.38;4970896;28;20201;-70
2021/03/07 01:47:46;;;;;;;6.75;4.80;;;;;;;2.75;38.28;95601.25;4971160;28;20309;-70
2021/03/07 01:50:12;;;;;;;6.80;4.60;;;;;;;2.96;39.48;95604.50;4970826;28;20179;-70
2021/03/07 01:52:38;;;;;;;5.80;3.80;;;;;;;3.01;38.04;95596.53;4954739;28;20668;-69
2021/03/07 01:55:03;;;;;;;5.80;4.33;;;;;;;2.89;38.99;95595.06;4971057;28;20324;-70
2021/03/07 01:57:29;;;;;;;5.97;4.37;;;;;;;2.89;38.46;95595.06;4970638;28;20260;-70
2021/03/07 01:59:54;;;;;;;8.93;4.43;;;;;;;2.81;39.08;95595.69;4970977;28;20548;-73
2021/03/07 02:02:20;;;;;;;6.00;4.37;;;;;;;2.92;38.02;95586.59;4954576;28;20218;-77
2021/03/07 02:04:45;;;;;;;7.87;4.80;;;;;;;3.01;36.68;95583.34;5008624;28;20583;-70
2021/03/07 02:07:11;;;;;;;6.50;4.27;;;;;;;2.79;37.90;95584.59;5011929;28;20195;-70
2021/03/07 02:09:37;;;;;;;7.43;4.60;;;;;;;2.76;39.56;95585.19;5011850;28;20169;-70
2021/03/07 02:12:02;;;;;;;7.70;4.97;;;;;;;2.94;37.87;95586.31;4994172;28;20199;-69
2021/03/07 02:14:29;;;;;;;5.07;4.20;;;;;;;2.81;37.55;95587.75;5010711;28;20604;-72
2021/03/07 02:16:54;;;;;;;5.80;4.03;;;;;;;2.87;38.12;95570.81;4994577;28;20271;-71
2021/03/07 02:19:21;;;;;;;7.67;4.53;;;;;;;2.61;38.29;95580.03;4994194;28;20619;-74
2021/03/07 02:21:46;;;;;;;6.38;4.05;;;;;;;2.48;38.64;95581.47;4994365;28;20255;-69
2021/03/07 02:24:13;;;;;;;5.50;3.87;;;;;;;2.67;38.80;95578.91;5010347;28;20636;-70
2021/03/07 02:26:40;;;;;;;5.45;4.32;;;;;;;2.79;38.12;95587.25;5010567;28;20654;-69
2021/03/07 02:29:07;;;;;;;7.45;4.63;;;;;;;2.83;38.37;95580.34;5010340;28;20609;-72
2021/03/07 02:31:32;;;;;;;7.03;4.05;;;;;;;2.58;37.77;95570.03;5010124;28;20279;-69
2021/03/07 02:34:11;;;;;;;5.10;4.43;;;;;;;2.72;38.15;95568.31;5010365;28;20543;-70
2021/03/07 02:36:45;;;;;;;7.65;4.57;;;;;;;2.71;38.00;95579.16;5010868;28;20173;-70
2021/03/07 02:39:10;;;;;;;8.60;4.35;;;;;;;2.64;39.77;95571.56;5014322;28;20205;-77
2021/03/07 02:41:36;;;;;;;6.67;4.53;;;;;;;2.82;39.24;95570.88;5014497;28;20247;-77
2021/03/07 02:44:06;;;;;;;11.40;3.93;;;;;;;2.73;38.62;95574.38;5015496;28;20169;-67
2021/03/07 02:46:32;;;;;;;6.65;4.13;;;;;;;2.73;37.92;95572.53;5015746;28;20181;-75
2021/03/07 02:48:59;;;;;;;6.63;4.13;;;;;;;2.72;38.04;95568.31;5014199;28;20192;-75
2021/03/07 02:51:26;;;;;;;8.10;4.57;;;;;;;2.83;38.06;95571.66;5014204;28;20181;-69
2021/03/07 02:53:53;;;;;;;7.30;4.65;;;;;;;2.56;37.44;95545.78;5014231;28;20184;-73
2021/03/07 02:56:19;;;;;;;6.57;4.10;;;;;;;2.65;37.87;95562.59;5014159;28;20635;-70
2021/03/07 02:58:44;;;;;;;5.27;4.10;;;;;;;2.52;38.24;95566.66;5014209;28;20236;-76
2021/03/07 03:01:11;;;;;;;5.97;4.47;;;;;;;2.59;38.22;95553.94;5014021;28;20180;-77
2021/03/07 03:03:38;;;;;;;6.70;4.53;;;;;;;2.51;38.96;95565.06;4997793;28;20680;-69
2021/03/07 03:06:04;;;;;;;10.13;5.25;;;;;;;2.68;38.70;95566.50;4997588;28;20272;-76
2021/03/07 03:08:30;;;;;;;8.60;4.87;;;;;;;2.43;39.06;95562.25;5014127;28;20179;-68
2021/03/07 03:10:55;;;;;;;6.80;5.28;;;;;;;2.24;39.68;95559.50;5013385;28;20177;-68
2021/03/07 03:13:21;;;;;;;7.43;4.67;;;;;;;2.12;39.66;95551.94;4997704;28;20177;-69
2021/03/07 03:15:46;;;;;;;7.33;4.50;;;;;;;2.19;39.91;95559.53;5013675;28;20207;-69
2021/03/07 03:18:13;;;;;;;9.23;4.90;;;;;;;2.60;39.02;95568.69;5013817;28;20702;-69
2021/03/07 03:20:38;;;;;;;5.97;4.45;;;;;;;2.70;38.86;95562.56;4997326;28;20254;-68
2021/03/07 03:23:04;;;;;;;8.63;4.67;;;;;;;2.36;38.98;95565.22;5013651;28;20731;-68
2021/03/07 03:25:29;;;;;;;8.53;5.40;;;;;;;2.56;39.31;95557.13;5014768;28;20288;-68
2021/03/07 03:27:56;;;;;;;7.10;4.80;;;;;;;2.61;39.42;95558.94;4980689;28;20193;-69
2021/03/07 03:30:22;;;;;;;10.18;5.10;;;;;;;2.68;39.16;95556.75;5015068;28;20184;-68
2021/03/07 03:32:48;;;;;;;11.32;5.50;;;;;;;2.35;39.35;95559.13;5014629;28;20192;-69
2021/03/07 03:35:15;;;;;;;8.00;5.60;;;;;;;2.09;39.85;95547.25;5014696;28;20310;-70
2021/03/07 03:37:41;;;;;;;9.75;5.03;;;;;;;1.93;40.32;95551.03;5014481;28;20208;-76
2021/03/07 03:40:08;;;;;;;8.02;4.85;;;;;;;1.90;40.69;95555.00;5014540;28;20181;-76
2021/03/07 03:42:38;;;;;;;7.93;5.32;;;;;;;2.11;39.52;95551.16;5014230;28;20185;-74
2021/03/07 03:45:04;;;;;;;10.57;6.13;;;;;;;2.37;39.49;95557.03;5013394;28;20169;-75
2021/03/07 03:47:30;;;;;;;10.05;5.20;;;;;;;2.37;39.60;95564.16;5013115;28;20265;-76
2021/03/07 03:49:58;;;;;;;8.57;5.63;;;;;;;2.12;40.00;95549.31;4997166;28;20529;-76
2021/03/07 03:52:23;;;;;;;10.77;5.35;;;;;;;2.07;40.60;95562.50;5013989;28;20664;-77
2021/03/07 03:55:11;;;;;;;8.13;5.40;;;;;;;2.28;39.78;95561.31;4996952;28;20212;-74
2021/03/07 03:57:36;;;;;;;8.98;5.20;;;;;;;2.22;39.92;95556.34;5014102;28;20204;-71
2021/03/07 04:00:07;;;;;;;11.57;5.97;;;;;;;1.99;40.71;95560.47;4996970;28;20218;-69
2021/03/07 04:02:33;;;;;;;8.73;5.97;;;;;;;2.13;40.39;95556.16;5012832;28;20226;-69
2021/03/07 04:04:59;;;;;;;13.50;5.17;;;;;;;2.25;40.12;95563.72;4996695;28;20581;-69
2021/03/07 04:07:25;;;;;;;8.05;4.85;;;;;;;2.07;40.21;95557.25;4996448;28;20432;-75
2021/03/07 04:09:53;;;;;;;10.23;5.30;;;;;;;1.51;41.77;95560.22;5012721;28;20363;-69
2021/03/07 04:12:22;;;;;;;9.98;5.75;;;;;;;1.82;42.03;95550.31;4996829;28;20189;-69
2021/03/07 04:14:47;;;;;;;9.50;5.60;;;;;;;2.01;40.75;95561.75;5012431;28;20243;-70
2021/03/07 04:17:15;;;;;;;7.90;5.33;;;;;;;1.97;41.03;95566.03;5012688;28;20181;-69
2021/03/07 04:19:40;;;;;;;10.13;5.30;;;;;;;1.61;41.83;95562.78;4996349;28;20192;-69
2021/03/07 04:22:06;;;;;;;7.97;5.57;;;;;;;1.73;41.98;95565.88;4996253;28;20177;-70
2021/03/07 04:24:31;;;;;;;9.93;5.80;;;;;;;1.23;41.87;95561.63;5013520;28;20173;-75
2021/03/07 04:26:57;;;;;;;12.80;6.70;;;;;;;1.17;42.25;95563.50;5013683;28;20174;-75
2021/03/07 04:29:23;;;;;;;10.63;5.93;;;;;;;1.56;41.69;95557.56;5012382;28;20177;-77
2021/03/07 04:31:48;;;;;;;10.30;5.72;;;;;;;1.66;41.76;95552.25;5012493;28;20230;-69
2021/03/07 04:34:14;;;;;;;11.10;6.20;;;;;;;1.76;41.39;95549.56;5012230;28;20601;-71
2021/03/07 04:36:39;;;;;;;11.40;5.67;;;;;;;1.88;41.12;95549.22;5012504;28;20554;-69
2021/03/07 04:39:05;;;;;;;10.10;5.80;;;;;;;1.86;40.75;95540.81;4995826;28;20268;-72
2021/03/07 04:41:31;;;;;;;8.03;4.40;;;;;;;1.78;40.59;95551.91;5012112;28;20177;-77
2021/03/07 04:43:59;;;;;;;9.33;6.30;;;;;;;1.32;41.93;95549.50;5012308;28;20216;-76
2021/03/07 04:46:25;;;;;;;9.43;5.72;;;;;;;1.69;41.93;95545.66;5013168;28;20173;-74
2021/03/07 04:48:51;;;;;;;10.17;6.63;;;;;;;2.04;40.25;95552.53;5012396;28;20659;-71
2021/03/07 04:51:16;;;;;;;11.23;5.87;;;;;;;2.02;42.14;95544.91;5013067;28;20428;-76
2021/03/07 04:53:42;;;;;;;12.40;6.17;;;;;;;2.17;40.92;95536.09;5012993;28;20734;-78
2021/03/07 04:56:07;;;;;;;11.07;5.90;;;;;;;2.28;40.20;95555.25;5011553;28;20240;-74
2021/03/07 04:58:36;;;;;;;9.50;5.20;;;;;;;2.19;40.95;95559.53;5013029;28;20236;-77
2021/03/07 05:01:02;;;;;;;14.25;5.68;;;;;;;1.96;41.54;95550.47;5011167;28;20184;-75
2021/03/07 05:03:27;;;;;;;8.50;5.60;;;;;;;2.08;40.58;95550.94;5011915;28;20169;-78
2021/03/07 05:05:53;;;;;;;10.07;5.40;;;;;;;2.19;40.45;95552.44;5013163;28;20181;-77
2021/03/07 05:08:19;;;;;;;9.10;5.83;;;;;;;2.02;40.66;95555.47;5012793;28;20667;-77
2021/03/07 05:10:44;;;;;;;9.80;6.40;;;;;;;1.65;40.45;95547.25;5012804;28;20201;-75
2021/03/07 05:13:10;;;;;;;7.50;4.47;;;;;;;1.87;40.86;95546.88;5012862;28;20177;-77
2021/03/07 05:15:35;;;;;;;11.27;5.13;;;;;;;2.02;41.68;95554.66;5013312;28;20184;-76
2021/03/07 05:18:01;;;;;;;9.73;5.77;;;;;;;2.12;42.29;95546.69;5014388;28;20702;-75
2021/03/07 05:20:26;;;;;;;7.90;5.53;;;;;;;2.32;41.97;95557.06;5014914;28;20173;-76
2021/03/07 05:22:52;;;;;;;13.30;5.43;;;;;;;2.21;42.36;95562.69;5012843;28;20193;-74
2021/03/07 05:25:17;;;;;;;9.53;5.40;;;;;;;1.68;42.70;95568.53;5013049;28;20216;-77
2021/03/07 05:27:43;;;;;;;9.23;6.00;;;;;;;1.97;42.93;95565.25;5012833;28;20177;-75
2021/03/07 05:30:09;;;;;;;8.60;6.40;;;;;;;2.03;42.52;95569.41;5012877;28;20256;-75
2021/03/07 05:32:35;;;;;;;9.95;6.10;;;;;;;2.15;41.46;95572.50;5012877;28;20177;-76
2021/03/07 05:35:00;;;;;;;10.90;6.33;;;;;;;2.27;41.52;95565.00;5012472;28;20599;-76
2021/03/07 05:37:26;;;;;;;9.80;6.03;;;;;;;2.46;39.96;95567.75;5012593;28;20676;-76
2021/03/07 05:39:51;;;;;;;13.37;6.03;;;;;;;2.40;41.44;95566.22;5012278;28;20687;-73
2021/03/07 05:42:17;;;;;;;10.87;5.97;;;;;;;2.49;41.09;95579.59;5012511;28;20268;-73
2021/03/07 05:44:42;;;;;;;7.37;5.17;;;;;;;2.50;40.94;95568.78;4994767;28;20676;-72
2021/03/07 05:47:08;;;;;;;6.97;5.30;;;;;;;2.48;40.42;95572.78;4994834;28;20169;-72
2021/03/07 05:49:34;;;;;;;12.30;6.73;;;;;;;2.42;40.61;95572.03;5012246;28;20562;-73
2021/03/07 05:51:59;;;;;;;11.70;5.37;;;;;;;2.34;41.38;95577.88;5027242;28;20225;-70
2021/03/07 05:54:25;;;;;;;10.47;6.67;;;;;;;2.54;40.33;95577.72;4994850;28;20260;-74
2021/03/07 05:56:51;;;;;;;14.23;7.50;;;;;;;2.86;39.93;95571.91;5012080;28;20610;-77
2021/03/07 05:59:16;;;;;;;15.70;7.70;;;;;;;2.77;39.99;95559.59;4994627;28;20204;-78
2021/03/07 06:01:42;;;;;;;13.03;7.87;;;;;;;2.76;40.91;95579.91;5010687;28;20188;-76
2021/03/07 06:04:08;;;;;;;14.37;7.10;;;;;;;2.52;41.59;95576.41;5012296;28;20416;-77
2021/03/07 06:06:33;;;;;;;16.27;8.57;;;;;;;2.81;40.98;95574.56;5012018;28;20242;-68
2021/03/07 06:09:21;;;;;;;14.63;7.97;;;;;;;2.84;40.91;95568.72;5012213;28;20180;-74
2021/03/07 06:11:47;;;;;;;16.58;9.15;;;;;;;2.94;41.00;95567.06;5011118;28;20183;-78
2021/03/07 06:14:25;;;;;;;17.27;9.05;;;;;;;2.84;40.64;95563.47;4994136;28;20248;-75
2021/03/07 06:17:08;;;;;;;19.77;10.32;;;;;;;2.88;40.93;95575.03;5010607;28;20169;-74
2021/03/07 06:20:04;;;;;;;15.13;8.82;;;;;;;2.89;40.80;95571.31;5010673;28;20185;-74
2021/03/07 06:22:31;;;;;;;21.25;9.55;;;;;;;2.97;40.71;95567.28;5012159;28;20216;-75
2021/03/07 06:24:57;;;;;;;17.58;10.02;;;;;;;2.98;41.12;95570.72;5010375;28;20272;-74
2021/03/07 06:27:24;;;;;;;14.73;8.20;;;;;;;3.00;40.89;95576.50;5010498;28;20180;-72
2021/03/07 06:30:05;;;;;;;16.25;8.90;;;;;;;2.64;41.45;95577.63;5011438;28;20201;-73
2021/03/07 06:32:32;;;;;;;14.63;8.68;;;;;;;2.89;40.17;95571.31;5011658;28;20196;-74
2021/03/07 06:34:58;;;;;;;17.58;8.00;;;;;;;2.80;39.86;95559.78;5011624;28;20373;-74
2021/03/07 06:37:24;;;;;;;12.37;8.17;;;;;;;3.25;40.01;95570.94;5010555;28;20199;-75
2021/03/07 06:39:49;;;;;;;12.50;7.70;;;;;;;3.40;39.08;95568.13;5010103;28;20280;-74
2021/03/07 06:42:15;;;;;;;18.43;9.97;;;;;;;3.33;38.51;95575.59;5011689;28;20655;-74
2021/03/07 06:45:00;;;;;;;14.23;8.23;;;;;;;3.00;39.97;95558.03;5010611;28;20181;-74
2021/03/07 06:47:27;;;;;;;15.77;7.97;;;;;;;3.40;39.13;95570.78;5011591;28;20192;-75
2021/03/07 06:50:13;;;;;;;12.68;7.70;;;;;;;3.59;38.30;95570.00;5011446;28;20182;-74
2021/03/07 06:52:52;;;;;;;15.75;7.00;;;;;;;3.62;38.17;95561.53;5011394;28;20224;-73
2021/03/07 06:55:17;;;;;;;11.93;6.80;;;;;;;3.33;39.88;95562.41;5004999;28;20185;-73
2021/03/07 06:57:43;;;;;;;16.33;8.80;;;;;;;3.63;39.01;95568.38;5006110;28;20210;-74
2021/03/07 07:00:09;;;;;;;15.00;7.67;;;;;;;3.36;40.23;95566.31;5010810;28;20161;-73
2021/03/07 07:02:35;;;;;;;21.65;8.25;;;;;;;3.62;38.53;95545.69;5011328;28;20328;-74
2021/03/07 07:05:00;;;;;;;14.70;7.93;;;;;;;3.83;38.93;95562.84;5009599;28;20515;-73
2021/03/07 07:07:28;;;;;;;15.07;7.63;;;;;;;3.61;39.11;95559.97;4993744;28;20197;-73
2021/03/07 07:09:58;;;;;;;13.10;7.93;;;;;;;3.60;38.18;95553.91;5010978;28;20170;-76
2021/03/07 07:12:25;;;;;;;18.20;7.78;;;;;;;3.68;38.94;95558.53;5009741;28;20181;-73
2021/03/07 07:14:51;;;;;;;16.02;8.10;;;;;;;4.12;38.16;95557.41;5011047;28;20173;-73
2021/03/07 07:17:18;;;;;;;18.33;9.07;;;;;;;4.35;38.32;95557.59;5011130;28;20170;-72
2021/03/07 07:19:44;;;;;;;17.38;8.38;;;;;;;4.18;38.38;95550.19;5011100;28;20161;-75
2021/03/07 07:22:13;;;;;;;12.63;7.53;;;;;;;3.99;39.67;95558.13;5010891;28;20170;-72
2021/03/07 07:24:39;;;;;;;19.02;8.50;;;;;;;4.20;37.48;95559.38;5014428;28;20165;-73
2021/03/07 07:27:05;;;;;;;18.67;8.20;;;;;;;4.25;38.23;95559.31;5014323;28;20189;-74
2021/03/07 07:29:30;;;;;;;12.80;7.10;;;;;;;4.18;38.00;95553.59;5014573;28;20184;-72
2021/03/07 07:32:03;;;;;;;22.50;7.73;;;;;;;4.37;37.04;95558.84;5012849;28;20181;-73
2021/03/07 07:34:57;;;;;;;19.20;7.10;;;;;;;4.28;36.84;95539.47;5014497;28;20652;-74
2021/03/07 07:37:23;;;;;;;15.85;7.45;;;;;;;4.41;38.00;95553.78;5012872;28;20196;-73
2021/03/07 07:39:53;;;;;;;17.92;7.78;;;;;;;4.85;36.33;95542.72;5013121;28;20166;-73
2021/03/07 07:42:29;;;;;;;13.82;8.10;;;;;;;4.80;36.12;95547.31;4995057;28;20196;-73
2021/03/07 07:44:57;;;;;;;14.02;7.00;;;;;;;4.80;35.15;95550.75;5013854;28;20196;-73
2021/03/07 07:47:22;;;;;;;9.53;6.50;;;;;;;5.07;35.24;95544.72;5014427;28;20177;-73
2021/03/07 07:49:52;;;;;;;10.07;6.43;;;;;;;5.19;34.42;95544.22;5012891;28;20448;-74
2021/03/07 07:52:23;;;;;;;14.18;7.25;;;;;;;5.15;35.80;95544.00;5012375;28;20663;-72
2021/03/07 07:54:49;;;;;;;12.73;7.60;;;;;;;5.17;35.93;95535.81;5004911;28;20269;-73
2021/03/07 07:57:38;;;;;;;10.70;6.85;;;;;;;5.51;35.74;95528.22;5011373;28;20555;-73
2021/03/07 08:00:11;;;;;;;18.87;7.30;;;;;;;5.34;34.55;95528.03;5013888;28;20763;-74
2021/03/07 08:02:46;;;;;;;12.85;7.13;;;;;;;5.12;34.55;95528.72;4997282;28;20400;-75
2021/03/07 08:05:20;;;;;;;15.60;7.35;;;;;;;5.19;34.56;95528.34;5013843;28;20161;-75
2021/03/07 08:07:59;;;;;;;14.80;8.20;;;;;;;5.25;35.51;95519.22;5015435;28;20177;-75
2021/03/07 08:10:51;;;;;;;16.53;8.10;;;;;;;5.52;36.17;95518.41;5010555;28;20591;-75
2021/03/07 08:13:28;;;;;;;13.20;7.75;;;;;;;5.87;34.46;95516.84;5010839;28;20427;-73
2021/03/07 08:16:02;;;;;;;18.80;9.97;;;;;;;5.83;35.92;95494.66;5010516;28;20185;-73
2021/03/07 08:18:55;;;;;;;16.17;10.33;;;;;;;5.91;35.93;95507.25;5013310;28;20468;-73
2021/03/07 08:21:23;;;;;;;21.60;10.37;;;;;;;5.93;36.35;95506.94;5013723;28;20784;-73
2021/03/07 08:24:17;;;;;;;21.17;9.27;;;;;;;6.10;35.81;95499.13;5013208;28;20423;-73
2021/03/07 08:26:43;;;;;;;18.30;9.53;;;;;;;6.22;34.71;95503.88;4912622;29;20448;-74
2021/03/07 08:29:43;;;;;;;25.10;11.70;;;;;;;5.83;34.42;95494.66;4914793;29;20423;-76
2021/03/07 08:32:34;;;;;;;14.57;7.03;;;;;;;5.73;34.84;95489.63;4924862;29;20660;-76
2021/03/07 08:35:19;;;;;;;11.93;6.90;;;;;;;6.04;34.00;95481.78;4933116;29;20435;-69
2021/03/07 08:38:14;;;;;;;20.57;8.87;;;;;;;6.45;34.08;95481.56;4933237;29;20482;-75
2021/03/07 08:40:43;;;;;;;13.83;7.20;;;;;;;6.89;33.14;95475.38;4932910;29;20477;-72
2021/03/07 08:43:23;;;;;;;12.67;7.13;;;;;;;6.76;34.11;95483.44;4917213;29;20424;-76
2021/03/07 08:46:04;;;;;;;13.03;6.77;;;;;;;6.54;32.22;95471.78;4933115;29;20444;-76
2021/03/07 08:48:31;;;;;;;11.87;6.80;;;;;;;6.49;32.58;95463.19;4914650;29;20421;-75
2021/03/07 08:50:57;;;;;;;13.13;6.47;;;;;;;6.49;33.25;95463.19;4910836;29;20492;-73
2021/03/07 08:53:29;;;;;;;13.23;6.73;;;;;;;6.63;32.74;95454.06;4933129;29;20880;-77
2021/03/07 08:55:54;;;;;;;11.13;6.33;;;;;;;6.85;33.63;95457.72;4933338;29;20451;-75
2021/03/07 08:58:20;;;;;;;11.30;6.80;;;;;;;6.84;31.78;95450.84;4933471;29;21058;-74
2021/03/07 09:00:50;;;;;;;10.90;6.70;;;;;;;6.51;33.36;95450.38;4917383;29;20327;-69
2021/03/07 09:03:16;;;;;;;16.20;7.17;;;;;;;6.26;34.07;95441.22;4966853;28;20201;-70
2021/03/07 09:05:42;;;;;;;10.87;7.03;;;;;;;6.74;34.07;95440.50;4992993;28;20901;-70
2021/03/07 09:08:07;;;;;;;12.17;6.70;;;;;;;6.87;32.57;95429.78;4992124;28;20454;-69
2021/03/07 09:10:34;;;;;;;14.63;7.00;;;;;;;7.02;33.64;95436.56;4992814;28;20667;-69
2021/03/07 09:13:13;;;;;;;8.77;6.73;;;;;;;6.98;32.68;95435.59;4993202;28;20201;-69
2021/03/07 09:16:00;;;;;;;18.73;7.77;;;;;;;6.97;32.70;95431.38;4992969;28;20452;-69
2021/03/07 09:18:35;;;;;;;12.07;6.63;;;;;;;7.35;33.93;95425.50;4992604;28;20461;-69
2021/03/07 09:21:02;;;;;;;12.60;6.87;;;;;;;7.45;31.64;95417.22;4998738;28;20519;-70
2021/03/07 09:23:38;;;;;;;10.33;6.87;;;;;;;7.56;32.22;95418.50;5011629;28;20452;-70
2021/03/07 09:26:09;;;;;;;10.60;6.83;;;;;;;7.56;32.87;95401.78;5012342;28;20820;-77
2021/03/07 09:28:53;;;;;;;13.43;7.60;;;;;;;7.87;31.48;95407.72;5012528;28;20431;-76
2021/03/07 09:31:19;;;;;;;12.93;7.07;;;;;;;7.90;31.86;95406.28;5012510;28;20948;-72
2021/03/07 09:33:52;;;;;;;14.60;7.03;;;;;;;7.73;32.39;95398.31;5011011;28;20431;-71
2021/03/07 09:36:18;;;;;;;12.03;7.37;;;;;;;7.43;32.62;95390.22;5012289;28;20420;-71
2021/03/07 09:38:50;;;;;;;14.43;8.00;;;;;;;7.59;31.91;95393.97;5010890;28;20456;-77
2021/03/07 09:41:25;;;;;;;12.83;7.27;;;;;;;7.77;31.27;95380.66;5012296;28;20854;-73
2021/03/07 09:43:51;;;;;;;12.10;7.90;;;;;;;8.02;33.35;95382.47;5010998;28;20754;-77
2021/03/07 09:46:16;;;;;;;20.03;8.47;;;;;;;8.04;31.64;95369.66;5010749;28;20507;-69
2021/03/07 09:48:43;;;;;;;15.43;7.37;;;;;;;8.06;31.62;95369.34;5010944;28;20173;-71
2021/03/07 09:51:13;;;;;;;11.57;7.40;;;;;;;7.81;32.64;95366.44;5010769;28;20161;-71
2021/03/07 09:53:39;;;;;;;13.17;7.47;;;;;;;8.17;33.68;95351.94;5010570;28;20921;-72
2021/03/07 09:56:05;;;;;;;16.93;7.50;;;;;;;8.70;31.24;95359.47;4993986;28;20498;-73
2021/03/07 09:58:38;;;;;;;17.20;8.67;;;;;;;8.91;31.01;95356.03;5011771;28;21059;-69
2021/03/07 10:01:07;;;;;;;15.33;7.90;;;;;;;8.90;30.86;95357.16;5011505;28;20420;-75
2021/03/07 10:03:33;;;;;;;13.10;7.53;;;;;;;8.55;30.05;95360.00;5011936;28;20502;-76
2021/03/07 10:06:19;;;;;;;18.07;8.30;;;;;;;8.89;30.46;95356.38;5009842;28;20424;-72
2021/03/07 10:08:46;;;;;;;13.73;7.70;;;;;;;9.00;30.02;95349.56;5009633;28;20416;-73
2021/03/07 10:11:20;;;;;;;13.20;7.30;;;;;;;9.27;30.54;95342.97;5009532;28;20523;-73
2021/03/07 10:13:55;;;;;;;14.00;8.00;;;;;;;9.40;29.95;95329.69;5011821;28;20474;-69
2021/03/07 10:16:30;;;;;;;13.47;8.33;;;;;;;8.85;31.14;95322.72;5011914;28;20506;-74
2021/03/07 10:19:12;;;;;;;16.00;7.63;;;;;;;8.44;32.18;95321.53;5011660;28;20463;-71
2021/03/07 10:21:38;;;;;;;15.40;8.37;;;;;;;8.95;32.60;95312.47;5010335;28;20435;-69
2021/03/07 10:24:06;;;;;;;12.50;7.40;;;;;;;9.20;31.76;95296.59;5011588;28;20424;-73
2021/03/07 10:26:31;;;;;;;18.23;8.57;;;;;;;9.50;30.61;95308.75;5011664;28;20181;-72
2021/03/07 10:28:57;;;;;;;26.33;11.63;;;;;;;9.84;31.58;95309.53;5011564;28;20434;-71
2021/03/07 10:31:22;;;;;;;25.33;12.20;;;;;;;10.27;31.36;95306.44;5011634;28;20239;-68
2021/03/07 10:33:52;;;;;;;18.40;9.07;;;;;;;10.41;31.18;95294.63;5011560;28;20173;-74
2021/03/07 10:36:19;;;;;;;14.00;7.67;;;;;;;10.47;28.81;95294.09;5010301;28;20197;-74
2021/03/07 10:38:49;;;;;;;12.00;7.33;;;;;;;10.28;28.22;95283.97;5011657;28;21001;-70
2021/03/07 10:41:31;;;;;;;13.13;8.10;;;;;;;10.24;29.63;95283.06;5009829;28;20427;-73
2021/03/07 10:43:58;;;;;;;15.13;8.23;;;;;;;10.41;28.92;95281.28;5011657;28;20416;-72
2021/03/07 10:46:49;;;;;;;14.37;8.50;;;;;;;10.65;29.50;95280.50;5009938;28;20935;-74
2021/03/07 10:49:17;;;;;;;12.70;8.23;;;;;;;10.72;28.05;95262.00;5007682;28;20436;-69
2021/03/07 10:51:42;;;;;;;12.07;7.67;;;;;;;10.88;28.55;95262.09;4993762;28;20536;-77
2021/03/07 10:54:08;;;;;;;14.37;7.43;;;;;;;10.40;28.54;95253.03;5011175;28;20424;-72
2021/03/07 10:56:36;;;;;;;12.80;8.03;;;;;;;10.14;28.77;95243.44;5011528;28;20215;-74
2021/03/07 10:59:02;;;;;;;16.83;8.53;;;;;;;10.44;29.95;95244.03;5014311;28;20675;-74
2021/03/07 11:01:27;;;;;;;14.37;8.23;;;;;;;10.60;29.42;95230.75;5015240;28;20464;-71
2021/03/07 11:03:53;;;;;;;13.03;8.07;;;;;;;10.88;28.75;95225.47;5015452;28;20632;-68
2021/03/07 11:06:21;;;;;;;11.07;7.67;;;;;;;11.26;28.23;95225.03;5015096;28;20532;-75
2021/03/07 11:08:47;;;;;;;14.60;9.63;;;;;;;11.43;27.82;95221.28;5014661;28;20461;-73
2021/03/07 11:11:13;;;;;;;14.03;8.07;;;;;;;11.34;28.03;95216.09;5013899;28;20235;-75
2021/03/07 11:13:38;;;;;;;12.73;7.57;;;;;;;11.43;28.04;95204.44;5015175;28;20424;-72
2021/03/07 11:16:04;;;;;;;11.27;7.70;;;;;;;11.08;27.46;95194.38;5014886;28;20192;-73
2021/03/07 11:18:30;;;;;;;16.10;7.97;;;;;;;11.00;28.06;95196.06;5012794;28;20200;-75
2021/03/07 11:20:55;;;;;;;13.13;7.77;;;;;;;10.92;28.32;95188.97;5014059;28;20235;-76
2021/03/07 11:23:21;;;;;;;14.50;8.00;;;;;;;10.45;29.55;95186.09;5014393;28;20184;-70
2021/03/07 11:25:46;;;;;;;15.97;8.00;;;;;;;10.63;29.28;95190.03;5014427;28;20214;-71
2021/03/07 11:28:12;;;;;;;13.80;8.10;;;;;;;10.55;29.84;95180.25;5014614;28;20177;-74
2021/03/07 11:30:37;;;;;;;17.33;7.57;;;;;;;11.08;28.87;95175.66;5014726;28;20311;-74
2021/03/07 11:33:03;;;;;;;12.17;7.33;;;;;;;11.11;28.52;95174.97;5013492;28;20177;-77
2021/03/07 11:35:29;;;;;;;12.07;7.70;;;;;;;11.35;28.98;95166.06;5013506;28;20351;-73
2021/03/07 11:37:57;;;;;;;14.37;7.73;;;;;;;11.47;28.34;95166.00;5014461;28;20208;-76
2021/03/07 11:40:22;;;;;;;9.90;6.90;;;;;;;11.52;28.85;95170.31;5014511;28;20188;-76
2021/03/07 11:42:48;;;;;;;15.23;8.37;;;;;;;11.11;29.49;95159.72;5012578;28;20428;-70
2021/03/07 11:45:13;;;;;;;13.63;7.73;;;;;;;11.38;27.31;95147.44;5014200;28;20176;-71